Time;durP1;ratioP1;P1;durP2;ratioP2;P2;SDS_P1;SDS_P2;PMS_P1;PMS_P2;Temp;Humidity;BMP_temperature;BMP_pressure;BME280_temperature;BME280_humidity;BME280_pressure;Samples;Min_cycle;Max_cycle;Signal;HPM_P1;HPM_P2
2022/03/13 00:00:49;;;;;;;14.85;11.60;;;;;;;;;;5029103;28;20044;-61
2022/03/13 00:03:17;;;;;;;14.27;11.13;;;;;;;;;;5012323;28;20881;-62
2022/03/13 00:05:45;;;;;;;13.23;11.02;;;;;;;;;;5028724;28;20073;-60
2022/03/13 00:08:40;;;;;;;14.27;10.88;;;;;;;;;;5034333;28;20049;-60
2022/03/13 00:11:17;;;;;;;13.45;10.45;;;;;;;;;;5019767;28;20057;-62
2022/03/13 00:13:51;;;;;;;12.40;9.98;;;;;;;;;;5028258;28;20384;-62
2022/03/13 00:16:18;;;;;;;13.05;10.18;;;;;;;;;;5027010;28;20038;-63
2022/03/13 00:18:47;;;;;;;13.45;10.90;;;;;;;;;;5027209;28;20056;-62
2022/03/13 00:21:20;;;;;;;15.35;11.40;;;;;;;;;;5027247;28;20756;-64
2022/03/13 00:23:47;;;;;;;17.45;11.23;;;;;;;;;;5025185;28;20046;-62
2022/03/13 00:26:15;;;;;;;16.00;10.32;;;;;;;;;;5027965;28;20418;-61
2022/03/13 00:28:41;;;;;;;15.35;12.45;;;;;;;;;;5018521;28;20048;-62
2022/03/13 00:31:07;;;;;;;14.48;10.40;;;;;;;;;;5027999;28;20392;-62
2022/03/13 00:33:34;;;;;;;13.18;10.05;;;;;;;;;;5028249;28;20077;-63
2022/03/13 00:36:00;;;;;;;11.93;8.38;;;;;;;;;;5028343;28;20064;-61
2022/03/13 00:38:26;;;;;;;10.30;7.70;;;;;;;;;;5010752;28;20073;-63
2022/03/13 00:40:56;;;;;;;9.60;7.45;;;;;;;;;;5027619;28;20037;-62
2022/03/13 00:43:23;;;;;;;10.98;8.18;;;;;;;;;;5029294;28;20042;-61
2022/03/13 00:45:50;;;;;;;15.15;10.48;;;;;;;;;;5028293;28;20037;-63
2022/03/13 00:48:16;;;;;;;10.65;7.70;;;;;;;;;;5028326;28;20129;-62
2022/03/13 00:50:43;;;;;;;13.05;8.77;;;;;;;;;;5027300;28;20128;-61
2022/03/13 00:53:09;;;;;;;14.57;9.13;;;;;;;;;;5026298;28;20077;-63
2022/03/13 00:55:35;;;;;;;16.60;11.63;;;;;;;;;;5026979;28;20129;-62
2022/03/13 00:58:01;;;;;;;16.83;11.80;;;;;;;;;;5027910;28;20045;-63
2022/03/13 01:00:27;;;;;;;15.52;11.48;;;;;;;;;;5028517;28;20128;-60
2022/03/13 01:02:53;;;;;;;13.23;10.18;;;;;;;;;;5029730;28;20577;-60
2022/03/13 01:05:24;;;;;;;16.83;11.32;;;;;;;;;;5029342;28;20403;-61
2022/03/13 01:07:53;;;;;;;16.80;11.32;;;;;;;;;;5029094;28;20046;-61
2022/03/13 01:10:19;;;;;;;14.63;12.27;;;;;;;;;;5010362;28;20046;-60
2022/03/13 01:12:46;;;;;;;17.88;11.25;;;;;;;;;;5027046;28;20037;-61
2022/03/13 01:15:12;;;;;;;14.48;12.00;;;;;;;;;;5011318;28;20116;-61
2022/03/13 01:17:38;;;;;;;15.98;10.55;;;;;;;;;;5025208;28;20042;-61
2022/03/13 01:20:05;;;;;;;14.50;12.38;;;;;;;;;;5028765;28;20045;-62
2022/03/13 01:22:33;;;;;;;14.75;12.23;;;;;;;;;;5010784;28;20109;-62
2022/03/13 01:24:59;;;;;;;15.85;10.75;;;;;;;;;;5028412;28;20045;-61
2022/03/13 01:27:25;;;;;;;15.07;11.18;;;;;;;;;;5029125;28;20648;-61
2022/03/13 01:29:51;;;;;;;15.50;12.55;;;;;;;;;;5027326;28;20409;-62
2022/03/13 01:32:17;;;;;;;16.27;12.35;;;;;;;;;;5027984;28;20041;-63
2022/03/13 01:34:47;;;;;;;18.05;12.45;;;;;;;;;;5026284;28;20069;-61
2022/03/13 01:37:15;;;;;;;15.75;11.45;;;;;;;;;;5025161;28;20042;-64
2022/03/13 01:39:42;;;;;;;17.45;12.45;;;;;;;;;;5043255;28;20430;-63
2022/03/13 01:42:08;;;;;;;15.98;12.93;;;;;;;;;;5026764;28;20041;-63
2022/03/13 01:44:34;;;;;;;16.85;11.63;;;;;;;;;;5026924;28;20052;-63
2022/03/13 01:47:01;;;;;;;16.23;11.68;;;;;;;;;;5025887;28;20049;-64
2022/03/13 01:49:27;;;;;;;15.63;11.13;;;;;;;;;;5026802;28;20049;-61
2022/03/13 01:51:53;;;;;;;18.05;13.82;;;;;;;;;;5028158;28;20041;-61
2022/03/13 01:54:19;;;;;;;16.67;12.25;;;;;;;;;;5010393;28;20038;-62
2022/03/13 01:56:46;;;;;;;14.70;12.43;;;;;;;;;;5027571;28;20041;-63
2022/03/13 01:59:14;;;;;;;15.27;12.48;;;;;;;;;;5026738;28;20037;-62
2022/03/13 02:01:40;;;;;;;15.40;12.90;;;;;;;;;;5023705;28;20057;-63
2022/03/13 02:04:06;;;;;;;18.38;13.55;;;;;;;;;;5027945;28;20040;-62
2022/03/13 02:06:33;;;;;;;18.08;13.48;;;;;;;;;;5010254;28;20132;-61
2022/03/13 02:08:59;;;;;;;18.15;13.02;;;;;;;;;;5028164;28;20041;-61
2022/03/13 02:11:40;;;;;;;18.02;13.73;;;;;;;;;;5027008;28;20041;-60
2022/03/13 02:14:08;;;;;;;20.00;13.75;;;;;;;;;;5025367;28;20087;-60
2022/03/13 02:16:34;;;;;;;17.40;13.35;;;;;;;;;;5010054;28;20033;-63
2022/03/13 02:19:00;;;;;;;19.73;13.90;;;;;;;;;;5025798;28;20044;-62
2022/03/13 02:21:28;;;;;;;18.25;13.48;;;;;;;;;;5026591;28;20483;-62
2022/03/13 02:23:55;;;;;;;16.60;13.07;;;;;;;;;;5026428;28;20316;-62
2022/03/13 02:26:22;;;;;;;16.00;12.27;;;;;;;;;;5027798;28;20415;-63
2022/03/13 02:28:52;;;;;;;18.85;12.82;;;;;;;;;;5026448;28;20128;-63
2022/03/13 02:31:23;;;;;;;18.50;12.77;;;;;;;;;;5025322;28;20098;-62
2022/03/13 02:33:52;;;;;;;20.33;14.38;;;;;;;;;;5027150;28;20041;-63
2022/03/13 02:36:34;;;;;;;15.52;13.00;;;;;;;;;;5025406;28;20080;-64
2022/03/13 02:39:01;;;;;;;17.15;12.10;;;;;;;;;;5027245;28;20037;-64
2022/03/13 02:41:27;;;;;;;14.85;12.15;;;;;;;;;;5026559;28;20121;-64
2022/03/13 02:43:57;;;;;;;15.10;12.15;;;;;;;;;;5027548;28;20502;-62
2022/03/13 02:46:24;;;;;;;14.73;12.00;;;;;;;;;;5027297;28;20525;-64
2022/03/13 02:48:50;;;;;;;15.65;11.27;;;;;;;;;;5025127;28;20090;-64
2022/03/13 02:51:16;;;;;;;16.95;11.75;;;;;;;;;;5025380;28;20490;-64
2022/03/13 02:53:42;;;;;;;13.25;10.23;;;;;;;;;;5024574;28;20114;-63
2022/03/13 02:56:09;;;;;;;17.77;11.52;;;;;;;;;;5024832;28;20108;-65
2022/03/13 02:58:35;;;;;;;15.68;11.50;;;;;;;;;;5029327;28;20099;-63
2022/03/13 03:01:01;;;;;;;16.15;12.80;;;;;;;;;;5025027;28;20041;-63
2022/03/13 03:03:27;;;;;;;16.42;12.00;;;;;;;;;;5042691;28;20048;-61
2022/03/13 03:05:54;;;;;;;14.90;11.43;;;;;;;;;;5027416;28;20487;-60
2022/03/13 03:08:21;;;;;;;14.57;11.68;;;;;;;;;;5024626;28;20052;-62
2022/03/13 03:10:47;;;;;;;15.10;11.23;;;;;;;;;;5022482;28;20054;-62
2022/03/13 03:13:15;;;;;;;12.30;11.00;;;;;;;;;;5024982;28;20491;-61
2022/03/13 03:15:43;;;;;;;17.45;11.80;;;;;;;;;;5025783;28;20057;-64
2022/03/13 03:18:09;;;;;;;16.08;12.88;;;;;;;;;;5023434;28;20046;-62
2022/03/13 03:20:36;;;;;;;15.77;12.15;;;;;;;;;;5025740;28;20034;-63
2022/03/13 03:23:02;;;;;;;14.20;11.40;;;;;;;;;;5025515;28;20039;-62
2022/03/13 03:25:29;;;;;;;16.23;12.90;;;;;;;;;;5007896;28;20084;-63
2022/03/13 03:27:57;;;;;;;15.18;11.75;;;;;;;;;;5007650;28;20080;-62
2022/03/13 03:30:24;;;;;;;14.18;11.57;;;;;;;;;;5026518;28;20048;-62
2022/03/13 03:32:51;;;;;;;14.10;10.23;;;;;;;;;;5025209;28;20053;-62
2022/03/13 03:35:19;;;;;;;15.68;11.35;;;;;;;;;;5007717;28;20033;-62
2022/03/13 03:37:45;;;;;;;14.82;10.93;;;;;;;;;;5041690;28;20088;-62
2022/03/13 03:40:12;;;;;;;15.07;12.30;;;;;;;;;;5024442;28;20499;-62
2022/03/13 03:42:39;;;;;;;15.25;11.73;;;;;;;;;;5025115;28;20041;-62
2022/03/13 03:45:05;;;;;;;16.45;11.77;;;;;;;;;;5023882;28;20049;-60
2022/03/13 03:47:31;;;;;;;16.17;12.07;;;;;;;;;;5025411;28;20045;-61
2022/03/13 03:49:57;;;;;;;13.23;11.30;;;;;;;;;;5027157;28;20543;-60
2022/03/13 03:52:24;;;;;;;14.25;11.65;;;;;;;;;;5028615;28;20129;-61
2022/03/13 03:54:51;;;;;;;15.00;12.00;;;;;;;;;;5030449;28;20045;-61
2022/03/13 03:57:17;;;;;;;14.43;11.93;;;;;;;;;;5034855;28;20408;-61
2022/03/13 03:59:43;;;;;;;15.38;11.85;;;;;;;;;;5029256;28;20502;-60
2022/03/13 04:02:10;;;;;;;15.43;11.70;;;;;;;;;;5028951;28;20116;-60
2022/03/13 04:04:36;;;;;;;17.85;12.65;;;;;;;;;;5029179;28;20407;-60
2022/03/13 04:07:02;;;;;;;13.90;11.38;;;;;;;;;;5030056;28;20037;-62
2022/03/13 04:09:28;;;;;;;15.20;12.00;;;;;;;;;;5029207;28;20048;-61
2022/03/13 04:11:54;;;;;;;15.73;11.68;;;;;;;;;;5011417;28;20049;-63
2022/03/13 04:14:21;;;;;;;16.02;12.43;;;;;;;;;;5029179;28;20756;-62
2022/03/13 04:16:47;;;;;;;14.32;11.02;;;;;;;;;;5025690;28;20045;-62
2022/03/13 04:19:13;;;;;;;14.85;10.90;;;;;;;;;;5027460;28;20084;-62
2022/03/13 04:21:41;;;;;;;17.10;12.75;;;;;;;;;;5028778;28;20530;-62
2022/03/13 04:24:11;;;;;;;12.57;8.90;;;;;;;;;;5030301;28;20048;-62
2022/03/13 04:26:39;;;;;;;9.68;7.28;;;;;;;;;;5011294;28;20084;-63
2022/03/13 04:29:09;;;;;;;16.00;13.30;;;;;;;;;;5012613;28;20073;-62
2022/03/13 04:31:37;;;;;;;16.45;13.52;;;;;;;;;;5029866;28;20048;-61
2022/03/13 04:34:03;;;;;;;15.50;12.50;;;;;;;;;;5027660;28;20053;-61
2022/03/13 04:36:32;;;;;;;16.10;12.10;;;;;;;;;;5029077;28;20037;-62
2022/03/13 04:38:59;;;;;;;17.70;13.50;;;;;;;;;;5009987;28;20084;-63
2022/03/13 04:41:25;;;;;;;20.15;14.23;;;;;;;;;;5027669;28;20052;-62
2022/03/13 04:43:53;;;;;;;15.85;11.48;;;;;;;;;;5028241;28;20189;-60
2022/03/13 04:46:19;;;;;;;11.57;7.63;;;;;;;;;;5011942;28;20507;-61
2022/03/13 04:48:45;;;;;;;8.32;6.00;;;;;;;;;;5027868;28;20037;-59
2022/03/13 04:51:11;;;;;;;14.25;9.57;;;;;;;;;;5011470;28;20038;-61
2022/03/13 04:53:38;;;;;;;14.65;10.88;;;;;;;;;;5028093;28;20450;-62
2022/03/13 04:56:04;;;;;;;15.63;13.20;;;;;;;;;;5026542;28;20519;-61
2022/03/13 04:58:31;;;;;;;15.40;11.20;;;;;;;;;;5029830;28;20072;-60
2022/03/13 05:00:57;;;;;;;12.45;9.23;;;;;;;;;;5009976;28;20030;-62
2022/03/13 05:03:24;;;;;;;16.48;12.73;;;;;;;;;;5027518;28;20149;-62
2022/03/13 05:05:50;;;;;;;16.42;10.77;;;;;;;;;;5026569;28;20044;-61
2022/03/13 05:08:18;;;;;;;17.83;12.60;;;;;;;;;;5027276;28;20057;-62
2022/03/13 05:10:45;;;;;;;16.88;11.73;;;;;;;;;;5026656;28;20049;-61
2022/03/13 05:13:11;;;;;;;14.18;11.05;;;;;;;;;;5010823;28;20548;-62
2022/03/13 05:15:39;;;;;;;15.57;11.82;;;;;;;;;;5026787;28;20077;-62
2022/03/13 05:18:06;;;;;;;14.75;11.98;;;;;;;;;;5028336;28;20049;-63
2022/03/13 05:20:34;;;;;;;14.30;11.25;;;;;;;;;;5010108;28;20115;-63
2022/03/13 05:23:00;;;;;;;14.00;11.15;;;;;;;;;;5025491;28;20358;-62
2022/03/13 05:25:31;;;;;;;14.18;10.43;;;;;;;;;;5027116;28;20605;-62
2022/03/13 05:27:57;;;;;;;16.45;11.55;;;;;;;;;;5010449;28;20076;-63
2022/03/13 05:30:23;;;;;;;16.15;11.77;;;;;;;;;;5010789;28;20074;-61
2022/03/13 05:32:49;;;;;;;16.80;12.10;;;;;;;;;;5027256;28;20455;-61
2022/03/13 05:35:16;;;;;;;16.10;11.90;;;;;;;;;;5011102;28;20045;-60
2022/03/13 05:37:42;;;;;;;15.88;11.98;;;;;;;;;;5027394;28;20434;-64
2022/03/13 05:40:13;;;;;;;14.43;10.20;;;;;;;;;;5010449;28;20518;-62
2022/03/13 05:42:40;;;;;;;15.02;11.52;;;;;;;;;;4994720;28;20034;-62
2022/03/13 05:45:06;;;;;;;11.30;8.70;;;;;;;;;;5026930;28;20136;-62
2022/03/13 05:47:32;;;;;;;9.75;6.00;;;;;;;;;;5026469;28;20141;-62
2022/03/13 05:50:00;;;;;;;10.52;8.02;;;;;;;;;;5025182;28;20076;-62
2022/03/13 05:52:26;;;;;;;10.43;8.48;;;;;;;;;;5026883;28;20131;-61
2022/03/13 05:54:52;;;;;;;12.05;8.38;;;;;;;;;;5027017;28;20099;-61
2022/03/13 05:57:18;;;;;;;16.73;10.50;;;;;;;;;;5042487;28;20041;-61
2022/03/13 05:59:44;;;;;;;13.60;11.00;;;;;;;;;;5009272;28;20037;-61
2022/03/13 06:02:10;;;;;;;13.40;10.98;;;;;;;;;;5026141;28;20041;-63
2022/03/13 06:04:36;;;;;;;14.20;11.43;;;;;;;;;;5010875;28;20494;-61
2022/03/13 06:07:03;;;;;;;19.15;11.45;;;;;;;;;;5026909;28;20045;-60
2022/03/13 06:09:29;;;;;;;17.52;11.07;;;;;;;;;;5009408;28;20581;-60
2022/03/13 06:11:55;;;;;;;16.30;11.30;;;;;;;;;;5026530;28;20458;-62
2022/03/13 06:14:22;;;;;;;11.65;8.38;;;;;;;;;;5025508;28;20052;-63
2022/03/13 06:16:48;;;;;;;10.50;8.60;;;;;;;;;;5009200;28;20124;-61
2022/03/13 06:19:17;;;;;;;12.30;9.18;;;;;;;;;;5009561;28;20068;-62
2022/03/13 06:21:43;;;;;;;12.30;8.30;;;;;;;;;;5025966;28;20080;-62
2022/03/13 06:24:09;;;;;;;11.70;8.63;;;;;;;;;;5025459;28;20041;-62
2022/03/13 06:26:36;;;;;;;12.23;7.63;;;;;;;;;;5025969;28;20392;-63
2022/03/13 06:29:02;;;;;;;11.57;9.57;;;;;;;;;;5027020;28;20060;-63
2022/03/13 06:31:29;;;;;;;14.07;10.70;;;;;;;;;;5026500;28;20122;-63
2022/03/13 06:33:55;;;;;;;13.43;10.15;;;;;;;;;;5027054;28;20136;-62
2022/03/13 06:36:21;;;;;;;13.27;10.57;;;;;;;;;;5027212;28;20120;-62
2022/03/13 06:38:47;;;;;;;14.80;9.80;;;;;;;;;;5025838;28;20514;-62
2022/03/13 06:41:13;;;;;;;11.63;9.07;;;;;;;;;;5027509;28;20064;-63
2022/03/13 06:43:40;;;;;;;13.65;9.43;;;;;;;;;;5009311;28;20081;-61
2022/03/13 06:46:06;;;;;;;15.25;9.57;;;;;;;;;;5025673;28;20483;-63
2022/03/13 06:48:32;;;;;;;13.25;8.77;;;;;;;;;;5024879;28;20099;-62
2022/03/13 06:50:58;;;;;;;11.55;8.48;;;;;;;;;;5026013;28;20041;-62
2022/03/13 06:53:25;;;;;;;16.23;9.15;;;;;;;;;;5025196;28;20050;-61
2022/03/13 06:55:51;;;;;;;14.43;9.73;;;;;;;;;;5025295;28;20561;-62
2022/03/13 06:58:18;;;;;;;10.35;8.40;;;;;;;;;;5025899;28;20041;-63
2022/03/13 07:00:44;;;;;;;12.52;8.50;;;;;;;;;;5026188;28;20250;-62
2022/03/13 07:03:11;;;;;;;12.32;9.20;;;;;;;;;;5008477;28;20113;-61
2022/03/13 07:05:37;;;;;;;11.63;9.43;;;;;;;;;;5025974;28;20088;-61
2022/03/13 07:08:03;;;;;;;11.57;8.65;;;;;;;;;;5008550;28;20056;-61
2022/03/13 07:10:29;;;;;;;15.07;8.75;;;;;;;;;;5027040;28;20037;-62
2022/03/13 07:12:58;;;;;;;11.38;9.00;;;;;;;;;;5008211;28;20052;-63
2022/03/13 07:15:26;;;;;;;13.43;9.02;;;;;;;;;;5023845;28;20428;-62
2022/03/13 07:17:53;;;;;;;11.02;8.95;;;;;;;;;;5025963;28;20046;-61
2022/03/13 07:20:19;;;;;;;14.38;9.07;;;;;;;;;;5027149;28;20091;-62
2022/03/13 07:22:46;;;;;;;12.18;8.02;;;;;;;;;;5025159;28;20068;-63
2022/03/13 07:25:14;;;;;;;12.70;8.68;;;;;;;;;;5030816;28;20047;-62
2022/03/13 07:27:40;;;;;;;13.23;10.30;;;;;;;;;;5030559;28;20136;-61
2022/03/13 07:30:07;;;;;;;18.13;11.35;;;;;;;;;;5047532;28;20045;-62
2022/03/13 07:32:34;;;;;;;12.00;9.20;;;;;;;;;;5030388;28;20499;-62
2022/03/13 07:35:00;;;;;;;12.60;9.55;;;;;;;;;;5030646;28;20034;-62
2022/03/13 07:37:27;;;;;;;14.15;9.90;;;;;;;;;;5032037;28;20041;-63
2022/03/13 07:39:53;;;;;;;13.77;9.88;;;;;;;;;;5031734;28;20041;-63
2022/03/13 07:42:20;;;;;;;12.52;9.65;;;;;;;;;;5040303;28;20136;-62
2022/03/13 07:44:46;;;;;;;14.88;11.02;;;;;;;;;;5037087;28;20131;-62
2022/03/13 07:47:12;;;;;;;12.73;8.80;;;;;;;;;;5038235;28;20037;-62
2022/03/13 07:49:38;;;;;;;13.13;9.82;;;;;;;;;;5036946;28;20045;-61
2022/03/13 07:52:05;;;;;;;10.73;8.18;;;;;;;;;;5036740;28;20137;-63
2022/03/13 07:54:31;;;;;;;11.90;8.77;;;;;;;;;;5019875;28;20092;-63
2022/03/13 07:56:57;;;;;;;13.73;9.20;;;;;;;;;;5037468;28;20128;-62
2022/03/13 07:59:23;;;;;;;12.63;9.77;;;;;;;;;;5039597;28;20487;-62
2022/03/13 08:01:50;;;;;;;8.90;6.43;;;;;;;;;;5037078;28;20111;-62
2022/03/13 08:04:16;;;;;;;9.93;7.18;;;;;;;;;;5039598;28;20057;-61
2022/03/13 08:06:42;;;;;;;14.27;10.18;;;;;;;;;;5036495;28;20041;-62
2022/03/13 08:09:10;;;;;;;14.07;10.15;;;;;;;;;;5038218;28;20057;-63
2022/03/13 08:11:38;;;;;;;11.48;9.23;;;;;;;;;;5033660;28;20136;-63
2022/03/13 08:14:05;;;;;;;15.40;10.43;;;;;;;;;;5036561;28;20049;-63
2022/03/13 08:16:32;;;;;;;11.82;9.48;;;;;;;;;;5038113;28;20034;-63
2022/03/13 08:19:00;;;;;;;14.38;9.95;;;;;;;;;;5039766;28;20136;-62
2022/03/13 08:21:26;;;;;;;11.15;9.13;;;;;;;;;;5038330;28;20081;-64
2022/03/13 08:23:53;;;;;;;13.32;9.43;;;;;;;;;;5036828;28;20044;-63
2022/03/13 08:26:19;;;;;;;12.30;10.18;;;;;;;;;;5039988;28;20037;-62
2022/03/13 08:28:45;;;;;;;11.90;9.48;;;;;;;;;;5035678;28;21867;-63
2022/03/13 08:31:12;;;;;;;13.68;10.95;;;;;;;;;;5037472;28;20292;-62
2022/03/13 08:33:38;;;;;;;11.68;10.15;;;;;;;;;;5037957;28;20087;-64
2022/03/13 08:36:04;;;;;;;12.02;9.65;;;;;;;;;;5037194;28;20132;-63
2022/03/13 08:38:31;;;;;;;14.68;11.02;;;;;;;;;;5035006;28;20068;-62
2022/03/13 08:40:57;;;;;;;10.45;9.27;;;;;;;;;;5034631;28;20115;-63
2022/03/13 08:43:23;;;;;;;12.00;8.93;;;;;;;;;;5030377;28;20076;-62
2022/03/13 08:45:49;;;;;;;11.88;8.65;;;;;;;;;;5032317;28;20045;-62
2022/03/13 08:48:15;;;;;;;11.88;9.18;;;;;;;;;;5034540;28;20114;-63
2022/03/13 08:50:41;;;;;;;11.65;9.30;;;;;;;;;;5036750;28;20100;-62
2022/03/13 08:53:09;;;;;;;12.45;9.27;;;;;;;;;;5029066;28;20044;-63
2022/03/13 08:55:35;;;;;;;12.98;9.82;;;;;;;;;;5029129;28;20049;-61
2022/03/13 08:58:01;;;;;;;10.88;8.93;;;;;;;;;;5030504;28;20445;-63
2022/03/13 09:00:27;;;;;;;12.50;9.30;;;;;;;;;;5029364;28;20082;-62
2022/03/13 09:02:53;;;;;;;12.27;8.85;;;;;;;;;;5025753;28;20033;-62
2022/03/13 09:05:21;;;;;;;11.40;8.77;;;;;;;;;;5030284;28;20090;-62
2022/03/13 09:07:47;;;;;;;12.50;9.30;;;;;;;;;;5030782;28;20087;-63
2022/03/13 09:10:14;;;;;;;13.50;9.80;;;;;;;;;;5028874;28;20518;-62
2022/03/13 09:12:40;;;;;;;12.10;10.07;;;;;;;;;;5027112;28;20045;-62
2022/03/13 09:15:07;;;;;;;10.30;8.77;;;;;;;;;;5027161;28;20060;-62
2022/03/13 09:17:34;;;;;;;12.10;9.48;;;;;;;;;;5026658;28;20192;-63
2022/03/13 09:20:00;;;;;;;11.35;9.77;;;;;;;;;;5025625;28;20052;-64
2022/03/13 09:22:30;;;;;;;11.45;9.82;;;;;;;;;;5026558;28;20038;-62
2022/03/13 09:24:58;;;;;;;11.82;9.82;;;;;;;;;;5027009;28;20060;-63
2022/03/13 09:27:28;;;;;;;12.35;9.30;;;;;;;;;;5009320;28;20045;-63
2022/03/13 09:29:54;;;;;;;11.23;9.27;;;;;;;;;;5026571;28;20364;-62
2022/03/13 09:32:22;;;;;;;11.85;9.38;;;;;;;;;;5025777;28;20075;-62
2022/03/13 09:34:48;;;;;;;9.48;7.97;;;;;;;;;;5025805;28;20170;-63
2022/03/13 09:37:14;;;;;;;11.82;9.05;;;;;;;;;;5024223;28;20044;-63
2022/03/13 09:39:44;;;;;;;10.70;8.65;;;;;;;;;;5025944;28;20037;-62
2022/03/13 09:42:10;;;;;;;10.18;8.93;;;;;;;;;;5025902;28;20037;-63
2022/03/13 09:44:36;;;;;;;10.55;8.50;;;;;;;;;;5025942;28;20380;-61
2022/03/13 09:47:02;;;;;;;10.32;9.18;;;;;;;;;;5026117;28;20048;-63
2022/03/13 09:49:28;;;;;;;10.88;8.80;;;;;;;;;;5025231;28;20076;-63
2022/03/13 09:51:55;;;;;;;9.77;8.77;;;;;;;;;;5027559;28;20514;-62
2022/03/13 09:54:22;;;;;;;11.05;9.88;;;;;;;;;;5025882;28;20048;-63
2022/03/13 09:56:48;;;;;;;13.20;9.13;;;;;;;;;;5025055;28;20091;-62
2022/03/13 09:59:14;;;;;;;9.30;8.48;;;;;;;;;;5027458;28;20041;-63
2022/03/13 10:01:40;;;;;;;11.75;8.88;;;;;;;;;;5042493;28;20122;-63
2022/03/13 10:04:06;;;;;;;9.40;8.48;;;;;;;;;;5027601;28;20051;-64
2022/03/13 10:06:33;;;;;;;10.80;9.00;;;;;;;;;;5027107;28;20033;-63
2022/03/13 10:09:00;;;;;;;11.45;9.25;;;;;;;;;;5024983;28;20049;-62
2022/03/13 10:11:35;;;;;;;11.82;8.98;;;;;;;;;;5021930;28;20056;-62
2022/03/13 10:14:10;;;;;;;8.65;7.80;;;;;;;;;;5023488;28;20414;-64
2022/03/13 10:16:38;;;;;;;10.40;7.85;;;;;;;;;;5039807;28;20099;-62
2022/03/13 10:19:15;;;;;;;8.20;7.20;;;;;;;;;;5026196;28;20464;-62
2022/03/13 10:21:59;;;;;;;10.07;9.07;;;;;;;;;;5026597;28;20045;-63
2022/03/13 10:24:25;;;;;;;;;;;;;;;;;;5026522;28;20048;-62
2022/03/13 10:26:58;;;;;;;11.13;8.98;;;;;;;;;;5026746;28;19921;-62
2022/03/13 10:29:30;;;;;;;11.45;9.73;;;;;;;;;;5024100;28;20599;-62
2022/03/13 10:31:57;;;;;;;11.67;9.33;;;;;;;;;;5025954;28;20045;-62
2022/03/13 10:34:24;;;;;;;10.52;9.38;;;;;;;;;;5026063;28;20471;-63
2022/03/13 10:36:50;;;;;;;12.55;9.48;;;;;;;;;;5027328;28;20099;-62
2022/03/13 10:39:20;;;;;;;10.13;9.10;;;;;;;;;;5024996;28;20057;-61
2022/03/13 10:41:50;;;;;;;11.43;10.20;;;;;;;;;;5026243;28;20099;-62
2022/03/13 10:44:22;;;;;;;13.35;10.15;;;;;;;;;;5025517;28;20506;-62
2022/03/13 10:46:55;;;;;;;11.77;9.00;;;;;;;;;;5028007;28;20390;-61
2022/03/13 10:49:22;;;;;;;;;;;;;;;;;;5024998;28;20041;-62
2022/03/13 10:51:49;;;;;;;11.48;8.38;;;;;;;;;;5025875;28;20358;-61
2022/03/13 10:54:27;;;;;;;10.45;9.40;;;;;;;;;;5024827;28;20053;-64
2022/03/13 10:57:10;;;;;;;10.15;8.95;;;;;;;;;;5028765;28;20042;-62
2022/03/13 10:59:37;;;;;;;15.68;9.55;;;;;;;;;;5029149;28;20060;-62
2022/03/13 11:02:16;;;;;;;11.05;9.73;;;;;;;;;;5031166;28;20111;-63
2022/03/13 11:04:47;;;;;;;10.65;8.57;;;;;;;;;;5031563;28;20033;-62
2022/03/13 11:07:13;;;;;;;10.68;9.65;;;;;;;;;;5028778;28;20041;-63
2022/03/13 11:09:39;;;;;;;12.30;9.20;;;;;;;;;;5031777;28;20057;-61
2022/03/13 11:12:09;;;;;;;10.75;9.65;;;;;;;;;;5028491;28;20159;-61
2022/03/13 11:14:36;;;;;;;15.98;10.13;;;;;;;;;;5031863;28;20038;-66
2022/03/13 11:17:03;;;;;;;11.70;9.50;;;;;;;;;;5029301;28;20563;-62
2022/03/13 11:19:29;;;;;;;11.45;10.25;;;;;;;;;;5022325;28;20091;-62
2022/03/13 11:21:56;;;;;;;15.90;10.38;;;;;;;;;;5030650;28;20446;-62
2022/03/13 11:24:23;;;;;;;15.88;10.93;;;;;;;;;;5030389;28;20115;-62
2022/03/13 11:26:51;;;;;;;11.00;9.90;;;;;;;;;;5030019;28;20037;-62
2022/03/13 11:29:37;;;;;;;10.63;9.40;;;;;;;;;;5027808;28;20340;-64
2022/03/13 11:32:23;;;;;;;11.32;10.10;;;;;;;;;;5027722;28;20037;-63
2022/03/13 11:35:07;;;;;;;10.82;9.73;;;;;;;;;;5028117;28;20126;-63
2022/03/13 11:37:33;;;;;;;10.52;8.55;;;;;;;;;;5028940;28;20057;-62
2022/03/13 11:40:00;;;;;;;10.70;9.60;;;;;;;;;;5031137;28;20038;-62
2022/03/13 11:42:26;;;;;;;12.45;10.07;;;;;;;;;;5026813;28;20060;-62
2022/03/13 11:44:53;;;;;;;13.13;10.13;;;;;;;;;;5031199;28;20048;-62
2022/03/13 11:47:22;;;;;;;11.98;10.68;;;;;;;;;;5029677;28;20049;-62
2022/03/13 11:49:48;;;;;;;12.25;9.98;;;;;;;;;;5030408;28;20056;-62
2022/03/13 11:52:17;;;;;;;11.77;10.05;;;;;;;;;;5032224;28;20045;-61
2022/03/13 11:57:13;;;;;;;13.07;10.02;;;;;;;;;;5027116;28;20049;-61
2022/03/13 11:59:39;;;;;;;10.18;8.95;;;;;;;;;;5031264;28;20044;-62
2022/03/13 12:02:10;;;;;;;12.02;10.23;;;;;;;;;;5028756;28;20068;-62
2022/03/13 12:04:36;;;;;;;10.77;9.68;;;;;;;;;;5024999;28;20045;-63
2022/03/13 12:07:06;;;;;;;11.65;10.18;;;;;;;;;;5024444;28;20056;-62
2022/03/13 12:09:43;;;;;;;11.32;9.85;;;;;;;;;;5008856;28;20056;-62
2022/03/13 12:12:12;;;;;;;10.80;9.63;;;;;;;;;;5021639;28;20049;-63
2022/03/13 12:15:11;;;;;;;11.07;9.60;;;;;;;;;;5019166;28;20054;-62
2022/03/13 12:17:47;;;;;;;12.02;10.45;;;;;;;;;;5009363;28;20057;-62
2022/03/13 12:20:24;;;;;;;9.77;8.88;;;;;;;;;;5035534;28;20045;-62
2022/03/13 12:22:53;;;;;;;11.60;10.40;;;;;;;;;;5026623;28;20084;-62
2022/03/13 12:25:27;;;;;;;10.02;8.98;;;;;;;;;;5027637;28;20045;-62
2022/03/13 12:27:54;;;;;;;10.85;9.85;;;;;;;;;;5031249;28;20053;-64
2022/03/13 12:30:27;;;;;;;10.25;8.85;;;;;;;;;;5028151;28;20128;-63
2022/03/13 12:32:57;;;;;;;11.18;9.75;;;;;;;;;;5029109;28;20049;-65
2022/03/13 12:35:24;;;;;;;12.18;9.65;;;;;;;;;;5031209;28;20069;-64
2022/03/13 12:37:57;;;;;;;9.35;8.45;;;;;;;;;;4993642;28;20088;-63
2022/03/13 12:40:24;;;;;;;9.98;8.98;;;;;;;;;;5024693;28;20086;-64
2022/03/13 12:42:54;;;;;;;10.57;9.40;;;;;;;;;;5026885;28;20033;-64
2022/03/13 12:45:21;;;;;;;10.35;9.00;;;;;;;;;;5027640;28;20064;-63
2022/03/13 12:47:49;;;;;;;10.95;9.02;;;;;;;;;;5027982;28;20056;-61
2022/03/13 12:50:17;;;;;;;9.43;8.52;;;;;;;;;;5028243;28;20083;-63
2022/03/13 12:52:44;;;;;;;10.48;8.30;;;;;;;;;;5027283;28;20050;-63
2022/03/13 12:55:11;;;;;;;9.55;8.55;;;;;;;;;;5009516;28;20045;-63
2022/03/13 12:57:37;;;;;;;9.00;8.10;;;;;;;;;;5027806;28;20044;-63
2022/03/13 13:00:07;;;;;;;9.63;7.82;;;;;;;;;;5025708;28;20045;-64
2022/03/13 13:02:35;;;;;;;10.15;8.95;;;;;;;;;;5025956;28;20037;-62
2022/03/13 13:05:09;;;;;;;9.88;8.82;;;;;;;;;;5025464;28;20495;-63
2022/03/13 13:07:36;;;;;;;10.00;8.68;;;;;;;;;;5026299;28;20576;-62
2022/03/13 13:10:04;;;;;;;8.57;6.93;;;;;;;;;;5004042;28;20045;-64
2022/03/13 13:12:31;;;;;;;9.80;8.60;;;;;;;;;;5012896;28;20049;-63
2022/03/13 13:14:58;;;;;;;10.20;9.05;;;;;;;;;;5028749;28;20077;-63
2022/03/13 13:17:26;;;;;;;9.90;8.93;;;;;;;;;;5024503;28;20049;-62
2022/03/13 13:19:56;;;;;;;11.05;8.27;;;;;;;;;;5027982;28;20056;-62
2022/03/13 13:22:27;;;;;;;11.73;8.70;;;;;;;;;;5009353;28;20075;-63
2022/03/13 13:25:10;;;;;;;9.10;8.15;;;;;;;;;;5011318;28;20440;-63
2022/03/13 13:27:37;;;;;;;11.52;8.90;;;;;;;;;;5024864;28;20045;-63
2022/03/13 13:30:16;;;;;;;10.60;9.18;;;;;;;;;;5029064;28;20175;-64
2022/03/13 13:32:49;;;;;;;9.70;8.80;;;;;;;;;;5025965;28;20128;-63
2022/03/13 13:35:22;;;;;;;11.57;8.98;;;;;;;;;;5025985;28;20407;-63
2022/03/13 13:38:06;;;;;;;10.27;9.27;;;;;;;;;;5027081;28;20041;-63
2022/03/13 13:40:35;;;;;;;9.70;8.80;;;;;;;;;;5025303;28;20523;-62
2022/03/13 13:43:03;;;;;;;10.43;8.93;;;;;;;;;;5023552;28;20045;-63
2022/03/13 13:45:29;;;;;;;9.70;8.32;;;;;;;;;;5031880;28;20167;-62
2022/03/13 13:48:15;;;;;;;11.30;9.27;;;;;;;;;;5031534;28;20131;-64
2022/03/13 13:50:43;;;;;;;15.02;8.32;;;;;;;;;;5033598;28;20048;-64
2022/03/13 13:53:09;;;;;;;10.82;8.30;;;;;;;;;;5035107;28;20084;-62
2022/03/13 13:55:37;;;;;;;9.32;8.35;;;;;;;;;;5033853;28;20045;-64
2022/03/13 13:58:22;;;;;;;10.55;8.23;;;;;;;;;;5030093;28;20048;-63
2022/03/13 14:00:49;;;;;;;14.38;6.25;;;;;;;;;;5034170;28;20040;-64
2022/03/13 14:03:15;;;;;;;8.98;7.80;;;;;;;;;;5028856;28;20128;-65
2022/03/13 14:05:41;;;;;;;10.40;7.97;;;;;;;;;;5029156;28;20056;-63
2022/03/13 14:08:08;;;;;;;11.48;9.27;;;;;;;;;;5030914;28;20049;-63
2022/03/13 14:10:34;;;;;;;10.20;8.77;;;;;;;;;;5014389;28;20038;-63
2022/03/13 14:13:01;;;;;;;10.25;9.13;;;;;;;;;;5031373;28;20068;-63
2022/03/13 14:15:28;;;;;;;15.00;9.23;;;;;;;;;;5030946;28;20148;-65
2022/03/13 14:17:55;;;;;;;16.52;10.00;;;;;;;;;;5026085;28;20057;-63
2022/03/13 14:20:21;;;;;;;12.82;9.93;;;;;;;;;;5028778;28;20041;-64
2022/03/13 14:22:47;;;;;;;11.82;8.63;;;;;;;;;;5028454;28;20499;-63
2022/03/13 14:25:13;;;;;;;11.27;8.23;;;;;;;;;;5044210;28;20049;-64
2022/03/13 14:27:39;;;;;;;12.43;8.80;;;;;;;;;;5027529;28;20068;-63
2022/03/13 14:30:06;;;;;;;12.00;8.63;;;;;;;;;;5027714;28;20057;-64
2022/03/13 14:32:32;;;;;;;9.85;8.43;;;;;;;;;;5030204;28;20509;-63